sensor_id;sensor_type;location;lat;lon;timestamp;P1;durP1;ratioP1;P2;durP2;ratioP2
73487;SDS011;61721;42.206;25.320;2022-07-29T00:00:51;5.78;;;2.35;;
73487;SDS011;61721;42.206;25.320;2022-07-29T00:03:18;4.28;;;1.95;;
73487;SDS011;61721;42.206;25.320;2022-07-29T00:05:46;4.53;;;2.25;;
73487;SDS011;61721;42.206;25.320;2022-07-29T00:08:14;5.22;;;2.15;;
73487;SDS011;61721;42.206;25.320;2022-07-29T00:10:41;4.68;;;2.10;;
73487;SDS011;61721;42.206;25.320;2022-07-29T00:13:09;4.28;;;1.90;;
73487;SDS011;61721;42.206;25.320;2022-07-29T00:15:36;7.47;;;2.28;;
73487;SDS011;61721;42.206;25.320;2022-07-29T00:18:03;4.45;;;2.13;;
73487;SDS011;61721;42.206;25.320;2022-07-29T00:20:30;3.97;;;1.90;;
73487;SDS011;61721;42.206;25.320;2022-07-29T00:22:58;7.75;;;2.22;;
73487;SDS011;61721;42.206;25.320;2022-07-29T00:25:26;4.03;;;2.03;;
73487;SDS011;61721;42.206;25.320;2022-07-29T00:27:54;3.50;;;1.88;;
73487;SDS011;61721;42.206;25.320;2022-07-29T00:30:21;4.30;;;1.98;;
73487;SDS011;61721;42.206;25.320;2022-07-29T00:32:48;4.32;;;2.30;;
73487;SDS011;61721;42.206;25.320;2022-07-29T00:35:15;4.78;;;1.85;;
73487;SDS011;61721;42.206;25.320;2022-07-29T00:37:59;4.40;;;2.20;;
73487;SDS011;61721;42.206;25.320;2022-07-29T00:40:28;4.78;;;2.08;;
73487;SDS011;61721;42.206;25.320;2022-07-29T00:42:55;4.00;;;1.88;;
73487;SDS011;61721;42.206;25.320;2022-07-29T00:45:22;5.88;;;1.80;;
73487;SDS011;61721;42.206;25.320;2022-07-29T00:47:49;7.40;;;2.15;;
73487;SDS011;61721;42.206;25.320;2022-07-29T00:50:17;4.20;;;1.80;;
73487;SDS011;61721;42.206;25.320;2022-07-29T00:52:44;4.65;;;1.90;;
73487;SDS011;61721;42.206;25.320;2022-07-29T00:55:12;3.90;;;1.90;;
73487;SDS011;61721;42.206;25.320;2022-07-29T00:57:42;3.28;;;1.90;;
73487;SDS011;61721;42.206;25.320;2022-07-29T01:00:11;4.13;;;2.03;;
73487;SDS011;61721;42.206;25.320;2022-07-29T01:02:57;6.93;;;2.05;;
73487;SDS011;61721;42.206;25.320;2022-07-29T01:05:25;4.68;;;1.95;;
73487;SDS011;61721;42.206;25.320;2022-07-29T01:07:54;3.50;;;1.88;;
73487;SDS011;61721;42.206;25.320;2022-07-29T01:10:23;4.15;;;2.00;;
73487;SDS011;61721;42.206;25.320;2022-07-29T01:12:53;3.85;;;1.88;;
73487;SDS011;61721;42.206;25.320;2022-07-29T01:15:21;4.40;;;2.20;;
73487;SDS011;61721;42.206;25.320;2022-07-29T01:17:52;3.90;;;1.92;;
73487;SDS011;61721;42.206;25.320;2022-07-29T01:20:28;3.80;;;1.90;;
73487;SDS011;61721;42.206;25.320;2022-07-29T01:29:11;4.20;;;2.33;;
73487;SDS011;61721;42.206;25.320;2022-07-29T01:31:45;5.22;;;2.08;;
73487;SDS011;61721;42.206;25.320;2022-07-29T01:34:19;6.95;;;2.15;;
73487;SDS011;61721;42.206;25.320;2022-07-29T01:36:51;3.95;;;2.00;;
73487;SDS011;61721;42.206;25.320;2022-07-29T01:39:26;4.25;;;2.40;;
73487;SDS011;61721;42.206;25.320;2022-07-29T01:41:57;4.78;;;2.10;;
73487;SDS011;61721;42.206;25.320;2022-07-29T01:44:33;4.88;;;2.30;;
73487;SDS011;61721;42.206;25.320;2022-07-29T01:47:05;4.00;;;2.00;;
73487;SDS011;61721;42.206;25.320;2022-07-29T01:49:39;4.07;;;2.40;;
73487;SDS011;61721;42.206;25.320;2022-07-29T01:52:14;4.05;;;2.22;;
73487;SDS011;61721;42.206;25.320;2022-07-29T01:54:49;4.18;;;2.25;;
73487;SDS011;61721;42.206;25.320;2022-07-29T01:57:21;4.63;;;2.05;;
73487;SDS011;61721;42.206;25.320;2022-07-29T01:59:53;4.22;;;2.60;;
73487;SDS011;61721;42.206;25.320;2022-07-29T02:02:22;4.82;;;2.65;;
73487;SDS011;61721;42.206;25.320;2022-07-29T02:04:51;4.75;;;2.15;;
73487;SDS011;61721;42.206;25.320;2022-07-29T02:07:21;3.50;;;2.20;;
73487;SDS011;61721;42.206;25.320;2022-07-29T02:09:49;6.75;;;2.20;;
73487;SDS011;61721;42.206;25.320;2022-07-29T02:12:19;4.20;;;2.15;;
73487;SDS011;61721;42.206;25.320;2022-07-29T02:14:49;4.22;;;2.58;;
73487;SDS011;61721;42.206;25.320;2022-07-29T02:17:22;4.95;;;2.70;;
73487;SDS011;61721;42.206;25.320;2022-07-29T02:19:51;17.13;;;3.05;;
73487;SDS011;61721;42.206;25.320;2022-07-29T02:22:22;5.90;;;2.92;;
73487;SDS011;61721;42.206;25.320;2022-07-29T02:24:50;5.20;;;2.70;;
73487;SDS011;61721;42.206;25.320;2022-07-29T02:27:19;4.00;;;2.60;;
73487;SDS011;61721;42.206;25.320;2022-07-29T02:29:48;5.05;;;2.90;;
73487;SDS011;61721;42.206;25.320;2022-07-29T02:32:18;4.68;;;2.63;;
73487;SDS011;61721;42.206;25.320;2022-07-29T02:34:47;7.25;;;2.72;;
73487;SDS011;61721;42.206;25.320;2022-07-29T02:37:16;7.05;;;2.45;;
73487;SDS011;61721;42.206;25.320;2022-07-29T02:39:45;4.55;;;2.65;;
73487;SDS011;61721;42.206;25.320;2022-07-29T02:42:15;6.40;;;2.72;;
73487;SDS011;61721;42.206;25.320;2022-07-29T02:44:43;6.75;;;2.50;;
73487;SDS011;61721;42.206;25.320;2022-07-29T02:47:12;5.68;;;2.80;;
73487;SDS011;61721;42.206;25.320;2022-07-29T02:49:47;5.03;;;2.83;;
73487;SDS011;61721;42.206;25.320;2022-07-29T02:52:20;7.40;;;3.05;;
73487;SDS011;61721;42.206;25.320;2022-07-29T02:54:54;5.75;;;3.25;;
73487;SDS011;61721;42.206;25.320;2022-07-29T02:57:27;6.00;;;3.10;;
73487;SDS011;61721;42.206;25.320;2022-07-29T02:59:59;5.53;;;3.08;;
73487;SDS011;61721;42.206;25.320;2022-07-29T03:02:31;5.63;;;3.50;;
73487;SDS011;61721;42.206;25.320;2022-07-29T03:05:03;5.30;;;3.20;;
73487;SDS011;61721;42.206;25.320;2022-07-29T03:07:33;6.57;;;3.60;;
73487;SDS011;61721;42.206;25.320;2022-07-29T03:10:01;5.45;;;3.50;;
73487;SDS011;61721;42.206;25.320;2022-07-29T03:12:29;6.82;;;3.38;;
73487;SDS011;61721;42.206;25.320;2022-07-29T03:14:57;5.57;;;3.60;;
73487;SDS011;61721;42.206;25.320;2022-07-29T03:17:27;6.10;;;3.40;;
73487;SDS011;61721;42.206;25.320;2022-07-29T03:19:54;7.32;;;3.80;;
73487;SDS011;61721;42.206;25.320;2022-07-29T03:22:23;11.68;;;3.55;;
73487;SDS011;61721;42.206;25.320;2022-07-29T03:24:50;5.68;;;3.28;;
73487;SDS011;61721;42.206;25.320;2022-07-29T03:27:17;6.07;;;3.10;;
73487;SDS011;61721;42.206;25.320;2022-07-29T03:29:45;5.78;;;3.60;;
73487;SDS011;61721;42.206;25.320;2022-07-29T03:32:12;9.02;;;3.20;;
73487;SDS011;61721;42.206;25.320;2022-07-29T03:34:39;6.93;;;3.10;;
73487;SDS011;61721;42.206;25.320;2022-07-29T03:37:06;4.18;;;2.42;;
73487;SDS011;61721;42.206;25.320;2022-07-29T03:39:36;5.07;;;3.20;;
73487;SDS011;61721;42.206;25.320;2022-07-29T03:42:07;11.40;;;3.20;;
73487;SDS011;61721;42.206;25.320;2022-07-29T03:44:37;5.93;;;2.85;;
73487;SDS011;61721;42.206;25.320;2022-07-29T03:47:05;6.43;;;2.55;;
73487;SDS011;61721;42.206;25.320;2022-07-29T03:49:35;5.95;;;3.15;;
73487;SDS011;61721;42.206;25.320;2022-07-29T03:52:04;5.70;;;2.33;;
73487;SDS011;61721;42.206;25.320;2022-07-29T03:54:32;5.72;;;2.70;;
73487;SDS011;61721;42.206;25.320;2022-07-29T03:57:01;9.32;;;2.60;;
73487;SDS011;61721;42.206;25.320;2022-07-29T03:59:28;7.90;;;2.80;;
73487;SDS011;61721;42.206;25.320;2022-07-29T04:01:58;5.90;;;2.50;;
73487;SDS011;61721;42.206;25.320;2022-07-29T04:04:27;6.25;;;2.60;;
73487;SDS011;61721;42.206;25.320;2022-07-29T04:06:54;6.45;;;2.35;;
73487;SDS011;61721;42.206;25.320;2022-07-29T04:09:21;5.93;;;2.50;;
73487;SDS011;61721;42.206;25.320;2022-07-29T04:11:48;5.32;;;2.85;;
73487;SDS011;61721;42.206;25.320;2022-07-29T04:14:17;4.90;;;2.30;;
73487;SDS011;61721;42.206;25.320;2022-07-29T04:16:45;4.93;;;2.50;;
73487;SDS011;61721;42.206;25.320;2022-07-29T04:19:12;19.67;;;3.58;;
73487;SDS011;61721;42.206;25.320;2022-07-29T04:21:40;6.43;;;2.70;;
73487;SDS011;61721;42.206;25.320;2022-07-29T04:24:08;7.90;;;4.03;;
73487;SDS011;61721;42.206;25.320;2022-07-29T04:26:36;4.93;;;2.72;;
73487;SDS011;61721;42.206;25.320;2022-07-29T04:29:03;4.32;;;2.25;;
73487;SDS011;61721;42.206;25.320;2022-07-29T04:31:31;6.28;;;2.60;;
73487;SDS011;61721;42.206;25.320;2022-07-29T04:33:59;7.53;;;2.88;;
73487;SDS011;61721;42.206;25.320;2022-07-29T04:36:26;13.30;;;3.22;;
73487;SDS011;61721;42.206;25.320;2022-07-29T04:38:53;8.05;;;3.03;;
73487;SDS011;61721;42.206;25.320;2022-07-29T04:41:20;5.57;;;2.72;;
73487;SDS011;61721;42.206;25.320;2022-07-29T04:43:47;9.38;;;3.10;;
73487;SDS011;61721;42.206;25.320;2022-07-29T04:46:14;11.55;;;2.70;;
73487;SDS011;61721;42.206;25.320;2022-07-29T04:48:43;8.43;;;5.05;;
73487;SDS011;61721;42.206;25.320;2022-07-29T04:51:12;6.68;;;4.32;;
73487;SDS011;61721;42.206;25.320;2022-07-29T04:53:41;8.90;;;3.00;;
73487;SDS011;61721;42.206;25.320;2022-07-29T04:56:08;12.65;;;5.25;;
73487;SDS011;61721;42.206;25.320;2022-07-29T04:58:35;6.50;;;2.60;;
73487;SDS011;61721;42.206;25.320;2022-07-29T05:01:03;7.68;;;2.30;;
73487;SDS011;61721;42.206;25.320;2022-07-29T05:03:30;5.00;;;2.17;;
73487;SDS011;61721;42.206;25.320;2022-07-29T05:05:58;7.05;;;2.53;;
73487;SDS011;61721;42.206;25.320;2022-07-29T05:08:26;5.93;;;2.33;;
73487;SDS011;61721;42.206;25.320;2022-07-29T05:10:56;5.30;;;2.40;;
73487;SDS011;61721;42.206;25.320;2022-07-29T05:13:25;4.15;;;2.38;;
73487;SDS011;61721;42.206;25.320;2022-07-29T05:15:56;4.18;;;2.13;;
73487;SDS011;61721;42.206;25.320;2022-07-29T05:18:23;5.57;;;2.10;;
73487;SDS011;61721;42.206;25.320;2022-07-29T05:20:50;5.22;;;2.10;;
73487;SDS011;61721;42.206;25.320;2022-07-29T05:23:19;4.88;;;2.00;;
73487;SDS011;61721;42.206;25.320;2022-07-29T05:25:46;5.90;;;2.13;;
73487;SDS011;61721;42.206;25.320;2022-07-29T05:28:15;7.00;;;2.40;;
73487;SDS011;61721;42.206;25.320;2022-07-29T05:30:42;3.90;;;2.25;;
73487;SDS011;61721;42.206;25.320;2022-07-29T05:33:09;4.75;;;2.22;;
73487;SDS011;61721;42.206;25.320;2022-07-29T05:35:37;5.45;;;2.00;;
73487;SDS011;61721;42.206;25.320;2022-07-29T05:38:04;3.63;;;2.00;;
73487;SDS011;61721;42.206;25.320;2022-07-29T05:40:33;5.00;;;2.20;;
73487;SDS011;61721;42.206;25.320;2022-07-29T05:43:00;4.88;;;2.50;;
73487;SDS011;61721;42.206;25.320;2022-07-29T05:45:27;4.95;;;2.88;;
73487;SDS011;61721;42.206;25.320;2022-07-29T05:47:54;5.35;;;2.75;;
73487;SDS011;61721;42.206;25.320;2022-07-29T05:50:23;6.38;;;2.75;;
73487;SDS011;61721;42.206;25.320;2022-07-29T05:52:51;5.03;;;2.45;;
73487;SDS011;61721;42.206;25.320;2022-07-29T05:55:18;5.55;;;2.47;;
73487;SDS011;61721;42.206;25.320;2022-07-29T05:57:47;5.32;;;2.85;;
73487;SDS011;61721;42.206;25.320;2022-07-29T06:00:14;6.43;;;2.50;;
73487;SDS011;61721;42.206;25.320;2022-07-29T06:02:42;6.25;;;2.28;;
73487;SDS011;61721;42.206;25.320;2022-07-29T06:05:09;7.15;;;2.45;;
73487;SDS011;61721;42.206;25.320;2022-07-29T06:07:37;4.50;;;2.25;;
73487;SDS011;61721;42.206;25.320;2022-07-29T06:10:04;6.15;;;2.80;;
73487;SDS011;61721;42.206;25.320;2022-07-29T06:12:32;6.15;;;2.95;;
73487;SDS011;61721;42.206;25.320;2022-07-29T06:15:01;6.50;;;3.08;;
73487;SDS011;61721;42.206;25.320;2022-07-29T06:17:31;4.25;;;2.38;;
73487;SDS011;61721;42.206;25.320;2022-07-29T06:19:59;5.47;;;2.50;;
73487;SDS011;61721;42.206;25.320;2022-07-29T06:22:28;5.38;;;2.78;;
73487;SDS011;61721;42.206;25.320;2022-07-29T06:24:55;6.18;;;2.22;;
73487;SDS011;61721;42.206;25.320;2022-07-29T06:27:26;7.53;;;2.22;;
73487;SDS011;61721;42.206;25.320;2022-07-29T06:29:53;4.60;;;2.30;;
73487;SDS011;61721;42.206;25.320;2022-07-29T06:32:22;5.22;;;2.17;;
73487;SDS011;61721;42.206;25.320;2022-07-29T06:34:50;4.22;;;1.95;;
73487;SDS011;61721;42.206;25.320;2022-07-29T06:37:17;4.47;;;2.10;;
73487;SDS011;61721;42.206;25.320;2022-07-29T06:39:44;6.82;;;2.30;;
73487;SDS011;61721;42.206;25.320;2022-07-29T06:42:12;8.50;;;2.63;;
73487;SDS011;61721;42.206;25.320;2022-07-29T06:44:39;6.15;;;2.15;;
73487;SDS011;61721;42.206;25.320;2022-07-29T06:47:07;4.82;;;1.83;;
73487;SDS011;61721;42.206;25.320;2022-07-29T06:49:35;4.03;;;2.20;;
73487;SDS011;61721;42.206;25.320;2022-07-29T06:52:05;6.78;;;2.08;;
73487;SDS011;61721;42.206;25.320;2022-07-29T06:54:33;6.78;;;2.13;;
73487;SDS011;61721;42.206;25.320;2022-07-29T06:57:00;5.75;;;2.05;;
73487;SDS011;61721;42.206;25.320;2022-07-29T06:59:27;4.00;;;2.10;;
73487;SDS011;61721;42.206;25.320;2022-07-29T07:01:54;5.57;;;2.25;;
73487;SDS011;61721;42.206;25.320;2022-07-29T07:04:22;5.18;;;2.10;;
73487;SDS011;61721;42.206;25.320;2022-07-29T07:06:50;3.92;;;2.00;;
73487;SDS011;61721;42.206;25.320;2022-07-29T07:09:21;5.00;;;2.20;;
73487;SDS011;61721;42.206;25.320;2022-07-29T07:11:49;4.53;;;2.10;;
73487;SDS011;61721;42.206;25.320;2022-07-29T07:14:16;4.75;;;2.17;;
73487;SDS011;61721;42.206;25.320;2022-07-29T07:16:43;5.22;;;2.10;;
73487;SDS011;61721;42.206;25.320;2022-07-29T07:19:10;5.22;;;2.10;;
73487;SDS011;61721;42.206;25.320;2022-07-29T07:21:37;4.65;;;1.92;;
73487;SDS011;61721;42.206;25.320;2022-07-29T07:24:06;5.60;;;1.95;;
73487;SDS011;61721;42.206;25.320;2022-07-29T07:26:37;4.22;;;1.90;;
73487;SDS011;61721;42.206;25.320;2022-07-29T07:29:05;5.90;;;2.13;;
73487;SDS011;61721;42.206;25.320;2022-07-29T07:31:32;4.90;;;1.90;;
73487;SDS011;61721;42.206;25.320;2022-07-29T07:33:59;4.85;;;1.95;;
73487;SDS011;61721;42.206;25.320;2022-07-29T07:36:26;4.68;;;2.03;;
73487;SDS011;61721;42.206;25.320;2022-07-29T07:38:54;4.88;;;1.92;;
73487;SDS011;61721;42.206;25.320;2022-07-29T07:41:26;4.25;;;2.10;;
73487;SDS011;61721;42.206;25.320;2022-07-29T07:43:53;3.95;;;2.10;;
73487;SDS011;61721;42.206;25.320;2022-07-29T07:46:21;3.95;;;2.00;;
73487;SDS011;61721;42.206;25.320;2022-07-29T07:48:48;3.67;;;2.10;;
73487;SDS011;61721;42.206;25.320;2022-07-29T07:51:15;4.47;;;2.20;;
73487;SDS011;61721;42.206;25.320;2022-07-29T07:53:42;3.60;;;2.08;;
73487;SDS011;61721;42.206;25.320;2022-07-29T07:56:10;4.55;;;1.90;;
73487;SDS011;61721;42.206;25.320;2022-07-29T07:58:39;6.57;;;2.10;;
73487;SDS011;61721;42.206;25.320;2022-07-29T08:01:06;5.22;;;2.25;;
73487;SDS011;61721;42.206;25.320;2022-07-29T08:03:34;5.20;;;2.20;;
73487;SDS011;61721;42.206;25.320;2022-07-29T08:06:02;6.15;;;2.08;;
73487;SDS011;61721;42.206;25.320;2022-07-29T08:08:29;7.35;;;2.30;;
73487;SDS011;61721;42.206;25.320;2022-07-29T08:10:56;9.35;;;2.35;;
73487;SDS011;61721;42.206;25.320;2022-07-29T08:13:25;8.93;;;2.08;;
73487;SDS011;61721;42.206;25.320;2022-07-29T08:15:56;5.38;;;2.17;;
73487;SDS011;61721;42.206;25.320;2022-07-29T08:18:25;5.13;;;2.08;;
73487;SDS011;61721;42.206;25.320;2022-07-29T08:20:53;4.10;;;2.20;;
73487;SDS011;61721;42.206;25.320;2022-07-29T08:23:21;4.25;;;2.00;;
73487;SDS011;61721;42.206;25.320;2022-07-29T08:25:49;9.13;;;2.40;;
73487;SDS011;61721;42.206;25.320;2022-07-29T08:28:16;4.32;;;2.10;;
73487;SDS011;61721;42.206;25.320;2022-07-29T08:30:44;3.63;;;1.90;;
73487;SDS011;61721;42.206;25.320;2022-07-29T08:33:13;5.13;;;2.22;;
73487;SDS011;61721;42.206;25.320;2022-07-29T08:35:40;4.60;;;2.20;;
73487;SDS011;61721;42.206;25.320;2022-07-29T08:38:11;3.90;;;2.13;;
73487;SDS011;61721;42.206;25.320;2022-07-29T08:40:38;5.18;;;2.15;;
73487;SDS011;61721;42.206;25.320;2022-07-29T08:43:06;4.13;;;2.03;;
73487;SDS011;61721;42.206;25.320;2022-07-29T08:45:37;3.90;;;2.08;;
73487;SDS011;61721;42.206;25.320;2022-07-29T08:48:09;4.15;;;2.15;;
73487;SDS011;61721;42.206;25.320;2022-07-29T08:50:42;4.07;;;2.10;;
73487;SDS011;61721;42.206;25.320;2022-07-29T08:53:11;5.47;;;2.20;;
73487;SDS011;61721;42.206;25.320;2022-07-29T08:55:39;3.70;;;2.20;;
73487;SDS011;61721;42.206;25.320;2022-07-29T08:58:08;5.75;;;2.42;;
73487;SDS011;61721;42.206;25.320;2022-07-29T09:00:36;4.25;;;2.05;;
73487;SDS011;61721;42.206;25.320;2022-07-29T09:03:08;4.25;;;2.22;;
73487;SDS011;61721;42.206;25.320;2022-07-29T09:05:42;3.92;;;2.13;;
73487;SDS011;61721;42.206;25.320;2022-07-29T09:08:11;8.82;;;2.58;;
73487;SDS011;61721;42.206;25.320;2022-07-29T09:10:39;8.00;;;2.35;;
73487;SDS011;61721;42.206;25.320;2022-07-29T09:13:06;7.35;;;2.30;;
73487;SDS011;61721;42.206;25.320;2022-07-29T09:15:33;4.90;;;2.15;;
73487;SDS011;61721;42.206;25.320;2022-07-29T09:18:01;8.68;;;2.33;;
73487;SDS011;61721;42.206;25.320;2022-07-29T09:20:28;5.30;;;2.40;;
73487;SDS011;61721;42.206;25.320;2022-07-29T09:23:17;16.77;;;2.70;;
73487;SDS011;61721;42.206;25.320;2022-07-29T09:25:45;5.60;;;2.22;;
73487;SDS011;61721;42.206;25.320;2022-07-29T09:28:17;3.90;;;1.92;;
73487;SDS011;61721;42.206;25.320;2022-07-29T09:30:50;4.10;;;2.35;;
73487;SDS011;61721;42.206;25.320;2022-07-29T09:33:18;6.05;;;2.42;;
73487;SDS011;61721;42.206;25.320;2022-07-29T09:35:57;3.42;;;2.13;;
73487;SDS011;61721;42.206;25.320;2022-07-29T09:38:27;4.00;;;2.30;;
73487;SDS011;61721;42.206;25.320;2022-07-29T09:40:58;4.85;;;2.20;;
73487;SDS011;61721;42.206;25.320;2022-07-29T09:43:26;5.03;;;2.28;;
73487;SDS011;61721;42.206;25.320;2022-07-29T09:45:54;5.57;;;2.50;;
73487;SDS011;61721;42.206;25.320;2022-07-29T09:48:22;6.28;;;2.90;;
73487;SDS011;61721;42.206;25.320;2022-07-29T09:50:51;6.38;;;2.90;;
73487;SDS011;61721;42.206;25.320;2022-07-29T09:53:33;4.53;;;2.97;;
73487;SDS011;61721;42.206;25.320;2022-07-29T09:56:02;4.63;;;2.80;;
73487;SDS011;61721;42.206;25.320;2022-07-29T09:58:32;4.53;;;2.90;;
73487;SDS011;61721;42.206;25.320;2022-07-29T10:00:59;5.82;;;3.03;;
73487;SDS011;61721;42.206;25.320;2022-07-29T10:03:27;5.72;;;3.03;;
73487;SDS011;61721;42.206;25.320;2022-07-29T10:06:04;6.63;;;2.92;;
73487;SDS011;61721;42.206;25.320;2022-07-29T10:08:33;6.10;;;3.10;;
73487;SDS011;61721;42.206;25.320;2022-07-29T10:11:10;6.90;;;3.15;;
73487;SDS011;61721;42.206;25.320;2022-07-29T10:13:41;7.13;;;3.45;;
73487;SDS011;61721;42.206;25.320;2022-07-29T10:16:10;7.00;;;2.85;;
73487;SDS011;61721;42.206;25.320;2022-07-29T10:18:38;5.25;;;2.88;;
73487;SDS011;61721;42.206;25.320;2022-07-29T10:21:07;5.53;;;3.17;;
73487;SDS011;61721;42.206;25.320;2022-07-29T10:23:37;7.63;;;2.90;;
73487;SDS011;61721;42.206;25.320;2022-07-29T10:26:06;5.30;;;2.78;;
73487;SDS011;61721;42.206;25.320;2022-07-29T10:28:33;5.70;;;3.00;;
73487;SDS011;61721;42.206;25.320;2022-07-29T10:31:05;4.40;;;2.80;;
73487;SDS011;61721;42.206;25.320;2022-07-29T10:33:39;6.82;;;3.20;;
73487;SDS011;61721;42.206;25.320;2022-07-29T10:36:32;4.90;;;2.35;;
73487;SDS011;61721;42.206;25.320;2022-07-29T10:39:14;6.05;;;2.30;;
73487;SDS011;61721;42.206;25.320;2022-07-29T10:41:56;5.07;;;2.13;;
73487;SDS011;61721;42.206;25.320;2022-07-29T10:44:32;5.53;;;2.20;;
73487;SDS011;61721;42.206;25.320;2022-07-29T10:47:00;3.92;;;2.47;;
73487;SDS011;61721;42.206;25.320;2022-07-29T10:49:28;6.55;;;2.60;;
73487;SDS011;61721;42.206;25.320;2022-07-29T10:51:56;5.13;;;2.20;;
73487;SDS011;61721;42.206;25.320;2022-07-29T10:54:46;6.30;;;2.20;;
73487;SDS011;61721;42.206;25.320;2022-07-29T10:57:23;6.70;;;2.10;;
73487;SDS011;61721;42.206;25.320;2022-07-29T11:02:53;6.63;;;2.38;;
73487;SDS011;61721;42.206;25.320;2022-07-29T11:05:23;3.78;;;2.22;;
73487;SDS011;61721;42.206;25.320;2022-07-29T11:10:53;5.30;;;2.08;;
73487;SDS011;61721;42.206;25.320;2022-07-29T11:13:48;5.10;;;2.13;;
73487;SDS011;61721;42.206;25.320;2022-07-29T11:16:21;5.22;;;2.25;;
73487;SDS011;61721;42.206;25.320;2022-07-29T11:21:48;4.38;;;1.98;;
73487;SDS011;61721;42.206;25.320;2022-07-29T11:24:18;4.72;;;2.30;;
73487;SDS011;61721;42.206;25.320;2022-07-29T11:29:47;4.95;;;2.00;;
73487;SDS011;61721;42.206;25.320;2022-07-29T11:32:17;4.68;;;1.95;;
73487;SDS011;61721;42.206;25.320;2022-07-29T11:34:46;6.93;;;2.30;;
73487;SDS011;61721;42.206;25.320;2022-07-29T11:37:18;4.88;;;2.20;;
73487;SDS011;61721;42.206;25.320;2022-07-29T11:42:48;3.55;;;1.98;;
73487;SDS011;61721;42.206;25.320;2022-07-29T11:45:17;3.45;;;1.90;;
73487;SDS011;61721;42.206;25.320;2022-07-29T11:47:48;3.70;;;2.00;;
73487;SDS011;61721;42.206;25.320;2022-07-29T11:53:03;3.80;;;2.00;;
73487;SDS011;61721;42.206;25.320;2022-07-29T11:55:37;5.50;;;2.00;;
73487;SDS011;61721;42.206;25.320;2022-07-29T11:58:07;4.75;;;2.00;;
73487;SDS011;61721;42.206;25.320;2022-07-29T12:00:35;3.85;;;1.85;;
73487;SDS011;61721;42.206;25.320;2022-07-29T12:03:05;4.72;;;2.10;;
73487;SDS011;61721;42.206;25.320;2022-07-29T12:05:34;4.63;;;2.25;;
73487;SDS011;61721;42.206;25.320;2022-07-29T12:08:04;5.07;;;2.10;;
73487;SDS011;61721;42.206;25.320;2022-07-29T12:10:40;3.60;;;2.10;;
73487;SDS011;61721;42.206;25.320;2022-07-29T12:16:03;5.13;;;1.90;;
73487;SDS011;61721;42.206;25.320;2022-07-29T12:18:31;4.30;;;2.05;;
73487;SDS011;61721;42.206;25.320;2022-07-29T12:21:00;4.25;;;1.92;;
73487;SDS011;61721;42.206;25.320;2022-07-29T12:26:28;3.80;;;1.90;;
73487;SDS011;61721;42.206;25.320;2022-07-29T12:28:57;4.00;;;1.80;;
73487;SDS011;61721;42.206;25.320;2022-07-29T12:31:26;3.95;;;2.10;;
73487;SDS011;61721;42.206;25.320;2022-07-29T12:33:54;5.35;;;2.20;;
73487;SDS011;61721;42.206;25.320;2022-07-29T12:36:21;3.40;;;2.00;;
73487;SDS011;61721;42.206;25.320;2022-07-29T12:38:48;5.43;;;2.20;;
73487;SDS011;61721;42.206;25.320;2022-07-29T12:41:16;5.30;;;2.05;;
73487;SDS011;61721;42.206;25.320;2022-07-29T12:43:51;5.30;;;2.22;;
73487;SDS011;61721;42.206;25.320;2022-07-29T12:46:21;6.20;;;2.22;;
73487;SDS011;61721;42.206;25.320;2022-07-29T12:48:50;5.78;;;2.10;;
73487;SDS011;61721;42.206;25.320;2022-07-29T12:51:27;3.92;;;2.38;;
73487;SDS011;61721;42.206;25.320;2022-07-29T12:54:02;4.57;;;1.92;;
73487;SDS011;61721;42.206;25.320;2022-07-29T12:56:30;4.43;;;2.08;;
73487;SDS011;61721;42.206;25.320;2022-07-29T12:58:58;4.45;;;2.00;;
73487;SDS011;61721;42.206;25.320;2022-07-29T13:01:27;3.88;;;1.80;;
73487;SDS011;61721;42.206;25.320;2022-07-29T13:04:03;3.33;;;2.00;;
73487;SDS011;61721;42.206;25.320;2022-07-29T13:06:31;4.40;;;2.00;;
73487;SDS011;61721;42.206;25.320;2022-07-29T13:09:06;3.90;;;1.85;;
73487;SDS011;61721;42.206;25.320;2022-07-29T13:11:37;3.10;;;1.80;;
73487;SDS011;61721;42.206;25.320;2022-07-29T13:14:10;5.82;;;2.03;;
73487;SDS011;61721;42.206;25.320;2022-07-29T13:19:37;4.18;;;1.90;;
73487;SDS011;61721;42.206;25.320;2022-07-29T13:22:05;4.43;;;1.73;;
73487;SDS011;61721;42.206;25.320;2022-07-29T13:24:33;4.53;;;2.00;;
73487;SDS011;61721;42.206;25.320;2022-07-29T13:27:00;4.50;;;1.98;;
73487;SDS011;61721;42.206;25.320;2022-07-29T13:29:28;4.20;;;2.00;;
73487;SDS011;61721;42.206;25.320;2022-07-29T13:31:55;3.90;;;2.03;;
73487;SDS011;61721;42.206;25.320;2022-07-29T13:34:24;4.78;;;2.00;;
73487;SDS011;61721;42.206;25.320;2022-07-29T13:36:55;6.03;;;2.05;;
73487;SDS011;61721;42.206;25.320;2022-07-29T13:39:29;5.45;;;2.22;;
73487;SDS011;61721;42.206;25.320;2022-07-29T13:41:56;6.15;;;2.55;;
73487;SDS011;61721;42.206;25.320;2022-07-29T13:44:23;5.10;;;2.17;;
73487;SDS011;61721;42.206;25.320;2022-07-29T13:46:51;4.00;;;1.88;;
73487;SDS011;61721;42.206;25.320;2022-07-29T13:49:18;3.38;;;1.98;;
73487;SDS011;61721;42.206;25.320;2022-07-29T13:51:47;4.03;;;2.00;;
73487;SDS011;61721;42.206;25.320;2022-07-29T13:56:44;5.50;;;2.30;;
73487;SDS011;61721;42.206;25.320;2022-07-29T13:59:11;4.30;;;2.08;;
73487;SDS011;61721;42.206;25.320;2022-07-29T14:01:38;5.47;;;2.10;;
73487;SDS011;61721;42.206;25.320;2022-07-29T14:04:07;4.10;;;2.00;;
73487;SDS011;61721;42.206;25.320;2022-07-29T14:06:35;5.18;;;2.20;;
73487;SDS011;61721;42.206;25.320;2022-07-29T14:09:05;4.40;;;2.00;;
73487;SDS011;61721;42.206;25.320;2022-07-29T14:11:33;6.82;;;2.05;;
73487;SDS011;61721;42.206;25.320;2022-07-29T14:14:00;3.97;;;2.00;;
73487;SDS011;61721;42.206;25.320;2022-07-29T14:16:28;14.52;;;2.60;;
73487;SDS011;61721;42.206;25.320;2022-07-29T14:18:55;4.35;;;2.17;;
73487;SDS011;61721;42.206;25.320;2022-07-29T14:21:22;3.97;;;2.15;;
73487;SDS011;61721;42.206;25.320;2022-07-29T14:23:51;4.72;;;2.00;;
73487;SDS011;61721;42.206;25.320;2022-07-29T14:26:21;3.65;;;1.90;;
73487;SDS011;61721;42.206;25.320;2022-07-29T14:28:49;3.53;;;1.88;;
73487;SDS011;61721;42.206;25.320;2022-07-29T14:31:22;3.53;;;1.80;;
73487;SDS011;61721;42.206;25.320;2022-07-29T14:33:49;3.75;;;1.90;;
73487;SDS011;61721;42.206;25.320;2022-07-29T14:36:17;5.25;;;2.13;;
73487;SDS011;61721;42.206;25.320;2022-07-29T14:38:44;4.25;;;1.90;;
73487;SDS011;61721;42.206;25.320;2022-07-29T14:41:12;4.18;;;2.30;;
73487;SDS011;61721;42.206;25.320;2022-07-29T14:43:40;4.40;;;2.10;;
73487;SDS011;61721;42.206;25.320;2022-07-29T14:46:08;5.38;;;1.98;;
73487;SDS011;61721;42.206;25.320;2022-07-29T14:48:35;4.15;;;2.13;;
73487;SDS011;61721;42.206;25.320;2022-07-29T14:51:04;3.95;;;1.95;;
73487;SDS011;61721;42.206;25.320;2022-07-29T14:53:31;5.90;;;2.00;;
73487;SDS011;61721;42.206;25.320;2022-07-29T14:55:59;6.30;;;1.92;;
73487;SDS011;61721;42.206;25.320;2022-07-29T14:58:26;6.97;;;2.13;;
73487;SDS011;61721;42.206;25.320;2022-07-29T15:00:55;4.65;;;2.03;;
73487;SDS011;61721;42.206;25.320;2022-07-29T15:03:24;4.03;;;1.88;;
73487;SDS011;61721;42.206;25.320;2022-07-29T15:05:51;4.22;;;2.05;;
73487;SDS011;61721;42.206;25.320;2022-07-29T15:08:18;7.15;;;2.40;;
73487;SDS011;61721;42.206;25.320;2022-07-29T15:10:46;4.72;;;2.00;;
73487;SDS011;61721;42.206;25.320;2022-07-29T15:13:14;4.60;;;2.20;;
73487;SDS011;61721;42.206;25.320;2022-07-29T15:15:41;5.57;;;2.00;;
73487;SDS011;61721;42.206;25.320;2022-07-29T15:18:11;5.75;;;2.10;;
73487;SDS011;61721;42.206;25.320;2022-07-29T15:20:38;3.42;;;1.95;;